createdAt,value
2018-10-07T00:02:16.016Z,99.90
2018-10-07T00:04:44.228Z,99.90
2018-10-07T00:07:12.524Z,99.90
2018-10-07T00:09:40.793Z,99.90
2018-10-07T00:12:08.964Z,99.90
2018-10-07T00:14:37.245Z,99.90
2018-10-07T00:17:05.809Z,99.90
2018-10-07T00:19:34.012Z,99.90
2018-10-07T00:22:02.213Z,99.90
2018-10-07T00:24:30.406Z,99.90
2018-10-07T00:26:58.602Z,99.90
2018-10-07T00:29:26.788Z,99.90
2018-10-07T00:32:00.384Z,99.90
2018-10-07T00:34:28.664Z,99.90
2018-10-07T00:36:56.906Z,99.90
2018-10-07T00:39:25.353Z,99.90
2018-10-07T00:41:53.648Z,99.90
2018-10-07T00:44:21.949Z,99.90
2018-10-07T00:46:50.126Z,99.90
2018-10-07T00:49:18.339Z,99.90
2018-10-07T00:51:46.516Z,99.90
2018-10-07T00:54:14.709Z,99.90
2018-10-07T00:56:42.964Z,99.90
2018-10-07T00:59:11.187Z,99.90
2018-10-07T01:01:39.379Z,99.90
2018-10-07T01:04:07.563Z,99.90
2018-10-07T01:06:35.769Z,99.90
2018-10-07T01:09:06.199Z,99.90
2018-10-07T01:11:34.381Z,99.90
2018-10-07T01:14:02.575Z,99.90
2018-10-07T01:16:30.784Z,99.90
2018-10-07T01:18:58.970Z,99.90
2018-10-07T01:21:27.121Z,99.90
2018-10-07T01:23:55.434Z,99.90
2018-10-07T01:26:23.635Z,99.90
2018-10-07T01:28:51.829Z,99.90
2018-10-07T01:31:20.048Z,99.90
2018-10-07T01:33:48.277Z,99.90
2018-10-07T01:36:16.481Z,99.90
2018-10-07T01:38:44.691Z,99.90
2018-10-07T01:41:12.918Z,99.90
2018-10-07T01:43:41.113Z,99.90
2018-10-07T01:46:09.291Z,99.90
2018-10-07T01:48:37.454Z,99.90
2018-10-07T01:51:05.651Z,99.90
2018-10-07T01:53:33.821Z,99.90
2018-10-07T01:56:02.006Z,99.90
2018-10-07T01:58:30.180Z,99.90
2018-10-07T02:00:58.353Z,99.90
2018-10-07T02:03:26.546Z,99.90
2018-10-07T02:05:54.751Z,99.90
2018-10-07T02:08:22.931Z,99.90
2018-10-07T02:10:51.154Z,99.90
2018-10-07T02:13:19.308Z,99.90
2018-10-07T02:15:47.568Z,99.90
2018-10-07T02:18:15.775Z,99.90
2018-10-07T02:20:43.975Z,99.90
2018-10-07T02:23:12.162Z,99.90
2018-10-07T02:25:40.374Z,99.90
2018-10-07T02:28:08.596Z,99.90
2018-10-07T02:30:36.833Z,99.90
2018-10-07T02:33:05.022Z,99.90
2018-10-07T02:35:33.216Z,99.90
2018-10-07T02:38:01.446Z,99.90
2018-10-07T02:40:29.729Z,99.90
2018-10-07T02:42:57.930Z,99.90
2018-10-07T02:45:26.097Z,99.90
2018-10-07T02:47:54.276Z,99.90
2018-10-07T02:50:23.657Z,99.90
2018-10-07T02:52:54.007Z,99.90
2018-10-07T02:55:27.341Z,99.90
2018-10-07T02:57:56.758Z,99.90
2018-10-07T03:00:24.957Z,99.90
2018-10-07T03:02:53.433Z,99.90
2018-10-07T03:05:21.632Z,99.90
2018-10-07T03:07:49.888Z,99.90
2018-10-07T03:10:18.093Z,99.90
2018-10-07T03:12:46.296Z,99.90
2018-10-07T03:15:14.506Z,99.90
2018-10-07T03:17:42.684Z,99.90
2018-10-07T03:20:10.862Z,99.90
2018-10-07T03:22:39.041Z,99.90
2018-10-07T03:25:07.241Z,99.90
2018-10-07T03:27:35.480Z,99.90
2018-10-07T03:30:03.778Z,99.90
2018-10-07T03:32:32.028Z,99.90
2018-10-07T03:35:00.189Z,99.90
2018-10-07T03:37:28.371Z,99.90
2018-10-07T03:39:56.618Z,99.90
2018-10-07T03:42:24.851Z,99.90
2018-10-07T03:44:53.154Z,99.90
2018-10-07T03:47:21.349Z,99.90
2018-10-07T03:49:49.562Z,99.90
2018-10-07T03:52:17.734Z,99.90
2018-10-07T03:54:45.935Z,99.90
2018-10-07T03:57:14.145Z,99.90
2018-10-07T03:59:42.334Z,99.90
2018-10-07T04:02:10.523Z,99.90
2018-10-07T04:04:38.688Z,99.90
2018-10-07T04:07:07.181Z,99.90
2018-10-07T04:09:35.340Z,99.90
2018-10-07T04:12:03.546Z,99.90
2018-10-07T04:14:31.752Z,99.90
2018-10-07T04:16:59.943Z,99.90
2018-10-07T04:19:28.136Z,99.90
2018-10-07T04:21:57.502Z,99.90
2018-10-07T04:24:27.353Z,99.90
2018-10-07T04:26:55.547Z,99.90
2018-10-07T04:29:23.732Z,99.90
2018-10-07T04:31:51.922Z,99.90
2018-10-07T04:34:20.102Z,99.90
2018-10-07T04:36:48.326Z,99.90
2018-10-07T04:39:16.713Z,99.90
2018-10-07T04:41:45.076Z,99.90
2018-10-07T04:44:13.297Z,99.90
2018-10-07T04:46:41.524Z,99.90
2018-10-07T04:49:09.716Z,99.90
2018-10-07T04:51:37.985Z,99.90
2018-10-07T04:54:06.245Z,99.90
2018-10-07T04:56:34.960Z,99.90
2018-10-07T04:59:03.481Z,99.90
2018-10-07T05:01:31.716Z,99.90
2018-10-07T05:03:59.904Z,99.90
2018-10-07T05:06:33.120Z,99.90
2018-10-07T05:09:02.947Z,99.90
2018-10-07T05:11:31.101Z,99.90
2018-10-07T05:13:59.286Z,99.90
2018-10-07T05:16:32.468Z,99.90
2018-10-07T05:19:01.225Z,99.90
2018-10-07T05:21:29.597Z,99.90
2018-10-07T05:23:58.491Z,99.90
2018-10-07T05:26:26.949Z,99.90
2018-10-07T05:28:55.233Z,99.90
2018-10-07T05:31:23.425Z,99.90
2018-10-07T05:33:51.881Z,99.90
2018-10-07T05:36:20.281Z,99.90
2018-10-07T05:38:48.785Z,99.90
2018-10-07T05:41:17.401Z,99.90
2018-10-07T05:43:45.721Z,99.90
2018-10-07T05:46:14.067Z,99.90
2018-10-07T05:48:42.270Z,99.90
2018-10-07T05:51:10.404Z,99.90
2018-10-07T05:53:38.641Z,99.90
2018-10-07T05:56:06.920Z,99.90
2018-10-07T05:58:35.478Z,99.90
2018-10-07T06:01:07.916Z,99.90
2018-10-07T06:03:48.558Z,99.90
2018-10-07T06:06:16.775Z,99.90
2018-10-07T06:08:44.983Z,99.90
2018-10-07T06:11:13.178Z,99.90
2018-10-07T06:13:41.444Z,99.90
2018-10-07T06:16:09.665Z,99.90
2018-10-07T06:18:37.855Z,99.90
2018-10-07T06:21:06.012Z,99.90
2018-10-07T06:23:34.233Z,99.90
2018-10-07T06:26:03.261Z,99.90
2018-10-07T06:28:32.118Z,99.90
2018-10-07T06:31:00.334Z,99.90
2018-10-07T06:33:28.504Z,99.90
2018-10-07T06:35:56.679Z,99.90
2018-10-07T06:38:24.956Z,99.90
2018-10-07T06:40:53.134Z,99.90
2018-10-07T06:43:21.387Z,99.90
2018-10-07T06:45:49.700Z,99.90
2018-10-07T06:48:17.748Z,99.90
2018-10-07T06:50:46.012Z,99.90
2018-10-07T06:53:14.188Z,99.90
2018-10-07T06:55:42.408Z,99.90
2018-10-07T06:58:10.625Z,99.90
2018-10-07T07:00:38.880Z,99.90
2018-10-07T07:03:07.865Z,99.90
2018-10-07T07:05:36.021Z,99.90
2018-10-07T07:08:04.186Z,99.90
2018-10-07T07:10:32.392Z,99.90
2018-10-07T07:13:00.643Z,99.90
2018-10-07T07:15:29.666Z,99.90
2018-10-07T07:17:57.872Z,99.90
2018-10-07T07:20:26.097Z,99.90
2018-10-07T07:22:54.260Z,99.90
2018-10-07T07:25:22.453Z,99.90
2018-10-07T07:27:50.661Z,99.90
2018-10-07T07:30:18.925Z,99.90
2018-10-07T07:32:47.116Z,99.90
2018-10-07T07:35:15.425Z,99.90
2018-10-07T07:37:43.633Z,99.90
2018-10-07T07:40:11.874Z,99.90
2018-10-07T07:42:40.081Z,99.90
2018-10-07T07:45:08.264Z,99.90
2018-10-07T07:47:36.516Z,99.90
2018-10-07T07:50:04.681Z,99.90
2018-10-07T07:52:32.864Z,99.90
2018-10-07T07:55:01.069Z,99.90
2018-10-07T07:57:29.237Z,99.90
2018-10-07T07:59:57.402Z,99.90
2018-10-07T08:02:25.618Z,99.90
2018-10-07T08:04:53.768Z,99.90
2018-10-07T08:07:21.947Z,99.90
2018-10-07T08:09:50.129Z,99.90
2018-10-07T08:12:18.351Z,99.90
2018-10-07T08:14:46.545Z,99.90
2018-10-07T08:17:14.761Z,99.90
2018-10-07T08:19:43.015Z,99.90
2018-10-07T08:22:11.212Z,99.90
2018-10-07T08:24:39.469Z,99.90
2018-10-07T08:27:07.673Z,99.90
2018-10-07T08:29:35.860Z,99.90
2018-10-07T08:32:04.095Z,99.90
2018-10-07T08:34:32.252Z,99.90
2018-10-07T08:37:00.439Z,99.90
2018-10-07T08:39:28.678Z,99.90
2018-10-07T08:41:56.855Z,99.90
2018-10-07T08:44:25.076Z,99.90
2018-10-07T08:46:53.386Z,99.90
2018-10-07T08:49:21.573Z,99.90
2018-10-07T08:51:49.764Z,99.90
2018-10-07T08:54:17.993Z,99.90
2018-10-07T08:56:46.165Z,99.90
2018-10-07T08:59:14.373Z,99.90
2018-10-07T09:01:42.558Z,99.90
2018-10-07T09:04:10.765Z,99.90
2018-10-07T09:06:38.953Z,99.90
2018-10-07T09:09:08.471Z,99.90
2018-10-07T09:11:36.645Z,98.50
2018-10-07T09:14:04.815Z,97.80
2018-10-07T09:16:33.025Z,94.10
2018-10-07T09:19:01.201Z,94.30
2018-10-07T09:21:29.365Z,92.30
2018-10-07T09:23:57.562Z,91.60
2018-10-07T09:26:25.726Z,90.60
2018-10-07T09:28:54.190Z,91.20
2018-10-07T09:31:22.423Z,90.40
2018-10-07T09:33:50.655Z,86.10
2018-10-07T09:36:18.885Z,87.60
2018-10-07T09:38:47.068Z,85.40
2018-10-07T09:41:15.219Z,88.40
2018-10-07T09:43:43.418Z,85.60
2018-10-07T09:46:11.568Z,83.70
2018-10-07T09:48:39.845Z,82.00
2018-10-07T09:51:08.037Z,82.90
2018-10-07T09:53:36.288Z,76.90
2018-10-07T09:56:04.499Z,78.80
2018-10-07T09:58:32.685Z,79.60
2018-10-07T10:01:00.886Z,81.10
2018-10-07T10:03:29.181Z,78.60
2018-10-07T10:05:57.436Z,81.60
2018-10-07T10:08:26.187Z,82.70
2018-10-07T10:10:54.450Z,76.60
2018-10-07T10:13:22.738Z,77.20
2018-10-07T10:15:50.943Z,74.60
2018-10-07T10:18:51.533Z,74.80
2018-10-07T10:21:32.806Z,73.40
2018-10-07T10:24:08.525Z,73.50
2018-10-07T10:26:45.992Z,73.00
2018-10-07T10:29:16.968Z,75.50
2018-10-07T10:34:03.481Z,76.20
2018-10-07T10:36:44.097Z,73.30
2018-10-07T10:39:51.606Z,71.90
2018-10-07T10:42:52.369Z,72.80
2018-10-07T10:45:27.939Z,70.90
2018-10-07T10:47:57.995Z,71.20
2018-10-07T10:50:37.832Z,73.30
2018-10-07T10:53:24.308Z,73.60
2018-10-07T10:55:59.653Z,72.00
2018-10-07T10:58:37.972Z,71.90
2018-10-07T11:01:15.345Z,74.20
2018-10-07T11:04:02.641Z,75.30
2018-10-07T11:07:19.153Z,73.10
2018-10-07T11:09:58.290Z,76.50
2018-10-07T11:12:36.102Z,72.30
2018-10-07T11:15:12.054Z,72.40
2018-10-07T11:18:02.171Z,73.70
2018-10-07T11:22:45.326Z,71.30
2018-10-07T11:25:27.941Z,71.20
2018-10-07T11:28:05.052Z,66.00
2018-10-07T11:31:43.592Z,66.70
2018-10-07T11:35:21.001Z,63.10
2018-10-07T11:39:02.604Z,65.50
2018-10-07T11:41:35.747Z,62.90
2018-10-07T11:44:31.745Z,62.80
2018-10-07T11:47:08.046Z,56.20
2018-10-07T11:49:47.688Z,58.70
2018-10-07T11:52:54.243Z,57.90
2018-10-07T11:55:22.421Z,54.70
2018-10-07T11:57:50.589Z,56.80
2018-10-07T12:00:19.665Z,59.30
2018-10-07T12:02:48.320Z,53.20
2018-10-07T12:05:16.559Z,52.20
2018-10-07T12:07:44.860Z,51.60
2018-10-07T12:10:13.086Z,46.60
2018-10-07T12:12:41.224Z,41.30
2018-10-07T12:15:09.438Z,41.70
2018-10-07T12:17:37.617Z,43.40
2018-10-07T12:20:06.949Z,42.70
2018-10-07T12:22:35.199Z,43.60
2018-10-07T12:25:03.490Z,45.70
2018-10-07T12:27:31.669Z,44.60
2018-10-07T12:30:00.947Z,42.10
2018-10-07T12:54:06.639Z,46.80
2018-10-07T12:56:34.913Z,41.30
2018-10-07T12:59:03.366Z,41.20
2018-10-07T13:01:32.193Z,43.00
2018-10-07T13:04:00.558Z,42.20
2018-10-07T13:06:28.949Z,43.10
2018-10-07T13:08:57.792Z,46.00
2018-10-07T13:11:26.116Z,44.40
2018-10-07T15:49:12.874Z,37.10
2018-10-07T15:51:41.038Z,37.20
2018-10-07T15:54:09.240Z,36.80
2018-10-07T15:56:37.537Z,35.50
2018-10-07T15:59:05.836Z,35.60
2018-10-07T16:01:34.311Z,35.10
2018-10-07T16:04:02.644Z,35.60
2018-10-07T16:06:37.538Z,35.00
2018-10-07T16:09:07.987Z,34.40
2018-10-07T16:11:36.228Z,34.50
2018-10-07T16:14:04.553Z,33.50
2018-10-07T16:16:32.886Z,33.70
2018-10-07T16:19:01.645Z,34.50
2018-10-07T16:21:31.341Z,33.80
2018-10-07T16:23:59.758Z,32.70
2018-10-07T16:26:28.247Z,33.90
2018-10-07T16:28:56.536Z,33.50
2018-10-07T16:31:24.796Z,33.50
2018-10-07T16:33:53.053Z,33.50
2018-10-07T16:36:21.232Z,34.00
2018-10-07T16:38:49.495Z,34.70
2018-10-07T16:41:23.981Z,35.80
2018-10-07T16:43:52.414Z,35.90
2018-10-07T16:46:20.641Z,37.20
2018-10-07T16:48:48.793Z,39.90
2018-10-07T16:51:17.122Z,39.20
2018-10-07T16:53:45.289Z,39.00
2018-10-07T16:56:13.498Z,39.60
2018-10-07T16:58:41.688Z,41.10
2018-10-07T17:01:09.825Z,42.10
2018-10-07T17:03:38.089Z,43.20
2018-10-07T17:06:06.298Z,43.20
2018-10-07T17:08:34.825Z,42.30
2018-10-07T17:11:02.980Z,44.20
2018-10-07T17:13:31.167Z,44.50
2018-10-07T17:15:59.559Z,45.30
2018-10-07T17:18:27.717Z,47.20
2018-10-07T17:20:55.916Z,48.20
2018-10-07T17:23:24.086Z,50.10
2018-10-07T17:25:52.492Z,51.40
2018-10-07T17:28:20.648Z,51.10
2018-10-07T17:30:48.867Z,51.50
2018-10-07T17:33:17.353Z,51.70
2018-10-07T17:35:45.577Z,52.50
2018-10-07T17:38:13.761Z,51.00
2018-10-07T17:40:41.924Z,51.10
2018-10-07T17:43:10.101Z,51.40
2018-10-07T17:45:38.457Z,55.70
2018-10-07T17:48:06.805Z,58.10
2018-10-07T17:50:35.145Z,57.80
2018-10-07T17:53:03.336Z,53.40
2018-10-07T17:55:31.695Z,51.70
2018-10-07T17:57:59.904Z,49.10
2018-10-07T18:00:28.088Z,49.60
2018-10-07T18:02:56.324Z,49.00
2018-10-07T18:05:24.409Z,49.00
2018-10-07T18:07:53.020Z,46.60
2018-10-07T18:10:21.168Z,46.40
2018-10-07T18:12:49.302Z,47.20
2018-10-07T18:15:17.481Z,48.10
2018-10-07T18:17:45.692Z,47.90
2018-10-07T18:20:13.972Z,47.00
2018-10-07T18:22:42.201Z,46.50
2018-10-07T18:25:10.418Z,45.50
2018-10-07T18:27:38.874Z,45.80
2018-10-07T18:30:07.093Z,47.90
2018-10-07T18:32:35.223Z,48.80
2018-10-07T18:35:03.436Z,49.60
2018-10-07T18:37:31.606Z,49.70
2018-10-07T18:39:59.767Z,50.10
2018-10-07T18:42:27.990Z,50.00
2018-10-07T18:44:56.125Z,50.10
2018-10-07T18:47:24.287Z,50.50
2018-10-07T18:49:52.734Z,49.50
2018-10-07T18:52:20.939Z,51.00
2018-10-07T18:54:49.190Z,50.90
2018-10-07T18:57:17.346Z,51.30
2018-10-07T18:59:45.521Z,53.30
2018-10-07T19:02:13.722Z,51.50
2018-10-07T19:04:41.947Z,52.70
2018-10-07T19:07:10.544Z,54.30
2018-10-07T19:09:38.921Z,57.70
2018-10-07T19:12:08.266Z,57.20
2018-10-07T19:14:36.514Z,58.30
2018-10-07T19:17:04.755Z,59.10
2018-10-07T19:19:32.950Z,59.60
2018-10-07T19:22:01.305Z,60.70
2018-10-07T19:24:29.517Z,60.10
2018-10-07T19:26:57.804Z,61.40
2018-10-07T19:29:26.240Z,63.40
2018-10-07T19:31:54.489Z,64.20
2018-10-07T19:34:22.710Z,65.60
2018-10-07T19:36:51.147Z,65.20
2018-10-07T19:39:19.869Z,64.40
2018-10-07T19:41:48.147Z,65.70
2018-10-07T19:44:16.342Z,67.30
2018-10-07T19:46:44.461Z,68.70
2018-10-07T19:49:12.664Z,70.50
2018-10-07T19:51:40.904Z,72.20
2018-10-07T19:54:09.052Z,73.90
2018-10-07T19:56:37.505Z,75.70
2018-10-07T19:59:05.711Z,77.00
2018-10-07T20:01:33.909Z,78.10
2018-10-07T20:04:02.084Z,79.10
2018-10-07T20:06:30.260Z,79.40
2018-10-07T20:08:58.606Z,80.00
2018-10-07T20:11:26.961Z,81.90
2018-10-07T20:13:55.131Z,83.60
2018-10-07T20:16:23.365Z,84.00
2018-10-07T20:18:51.513Z,84.60
2018-10-07T20:21:19.724Z,85.60
2018-10-07T20:23:48.326Z,84.30
2018-10-07T20:26:16.691Z,82.10
2018-10-07T20:28:44.967Z,82.80
2018-10-07T20:31:13.123Z,82.80
2018-10-07T20:33:41.422Z,85.00
2018-10-07T20:36:09.640Z,85.90
2018-10-07T20:38:37.785Z,85.80
2018-10-07T20:41:05.933Z,88.20
2018-10-07T20:43:34.153Z,89.30
2018-10-07T20:46:02.408Z,89.60
2018-10-07T20:48:30.666Z,89.60
2018-10-07T20:50:58.897Z,89.60
2018-10-07T20:53:27.113Z,88.90
2018-10-07T20:55:55.360Z,90.10
2018-10-07T20:58:24.095Z,90.80
2018-10-07T21:00:52.683Z,91.10
2018-10-07T21:03:22.358Z,91.10
2018-10-07T21:05:50.577Z,91.00
2018-10-07T21:08:21.182Z,91.40
2018-10-07T21:10:49.757Z,91.60
2018-10-07T21:13:17.983Z,92.00
2018-10-07T21:15:46.756Z,92.50
2018-10-07T21:18:14.985Z,93.20
2018-10-07T21:20:43.127Z,93.50
2018-10-07T21:23:11.885Z,94.30
2018-10-07T21:25:40.049Z,94.70
2018-10-07T21:28:08.207Z,95.30
2018-10-07T21:30:36.378Z,95.30
2018-10-07T21:35:40.925Z,95.90
2018-10-07T21:38:09.453Z,96.20
2018-10-07T21:40:37.600Z,96.00
2018-10-07T21:43:06.000Z,96.20
2018-10-07T21:45:34.692Z,96.60
2018-10-07T21:48:03.255Z,96.60
2018-10-07T21:50:31.768Z,96.60
2018-10-07T21:52:59.925Z,97.10
2018-10-07T21:55:28.654Z,97.50
2018-10-07T21:57:57.312Z,97.60
2018-10-07T22:00:25.545Z,98.00
2018-10-07T22:02:54.163Z,96.80
2018-10-07T22:05:22.725Z,97.90
2018-10-07T22:07:51.221Z,97.30
2018-10-07T22:10:19.381Z,98.70
2018-10-07T22:12:47.914Z,99.20
2018-10-07T22:15:16.066Z,99.30
2018-10-07T22:17:44.231Z,99.90
2018-10-07T22:20:12.517Z,99.90
2018-10-07T22:22:40.557Z,99.40
2018-10-07T22:25:08.751Z,99.30
2018-10-07T22:27:36.924Z,99.40
2018-10-07T22:30:05.164Z,99.30
2018-10-07T22:32:33.352Z,98.60
2018-10-07T22:35:01.559Z,98.10
2018-10-07T22:37:29.859Z,98.20
2018-10-07T22:39:58.476Z,98.40
2018-10-07T22:42:27.197Z,98.70
2018-10-07T22:44:55.365Z,99.10
2018-10-07T22:47:24.630Z,99.40
2018-10-07T22:49:52.998Z,99.60
2018-10-07T22:52:21.336Z,99.90
2018-10-07T22:54:49.575Z,99.90
2018-10-07T22:57:17.723Z,99.90
2018-10-07T22:59:46.127Z,99.90
2018-10-07T23:02:14.810Z,99.90
2018-10-07T23:04:42.982Z,99.90
2018-10-07T23:07:11.900Z,99.90
2018-10-07T23:09:40.074Z,99.90
2018-10-07T23:12:08.216Z,99.90
2018-10-07T23:14:36.884Z,99.90
2018-10-07T23:17:05.045Z,99.90
2018-10-07T23:19:33.277Z,99.90
2018-10-07T23:22:01.435Z,99.90
2018-10-07T23:24:29.568Z,99.90
2018-10-07T23:26:57.767Z,99.90
2018-10-07T23:29:25.931Z,99.90
2018-10-07T23:31:54.133Z,99.90
2018-10-07T23:34:22.294Z,99.90
2018-10-07T23:36:50.463Z,99.90
2018-10-07T23:39:18.625Z,99.90
2018-10-07T23:41:47.269Z,99.90
2018-10-07T23:44:15.428Z,99.90
2018-10-07T23:46:43.603Z,99.90
2018-10-07T23:49:11.756Z,99.90
2018-10-07T23:51:40.093Z,99.90
2018-10-07T23:54:08.530Z,99.90
2018-10-07T23:56:37.335Z,99.90
2018-10-07T23:59:05.525Z,99.90
